Time;durP1;ratioP1;P1;durP2;ratioP2;P2;SDS_P1;SDS_P2;PMS_P1;PMS_P2;Temp;Humidity;BMP_temperature;BMP_pressure;BME280_temperature;BME280_humidity;BME280_pressure;Samples;Min_cycle;Max_cycle;Signal;HPM_P1;HPM_P2
2021/11/10 00:00:26;;;;;;;59.05;3.83;;;1.30;1.00;;;;;;5137171;27;20725;-67
2021/11/10 00:02:54;;;;;;;58.88;4.03;;;1.30;1.00;;;;;;5137620;27;20287;-68
2021/11/10 00:05:22;;;;;;;58.88;3.40;;;1.30;1.00;;;;;;5135751;27;20213;-67
2021/11/10 00:07:49;;;;;;;58.67;3.63;;;1.20;1.00;;;;;;5135556;27;20297;-68
2021/11/10 00:10:17;;;;;;;58.60;3.00;;;1.20;1.00;;;;;;5137020;27;20249;-68
2021/11/10 00:12:44;;;;;;;58.47;3.70;;;1.20;1.00;;;;;;5137646;27;20206;-67
2021/11/10 00:15:12;;;;;;;58.53;3.22;;;1.20;1.00;;;;;;5138374;27;20199;-68
2021/11/10 00:17:39;;;;;;;58.80;3.35;;;1.10;1.00;;;;;;5136871;27;20294;-67
2021/11/10 00:20:09;;;;;;;58.03;3.38;;;1.10;1.00;;;;;;5138089;27;20235;-67
2021/11/10 00:22:37;;;;;;;58.78;3.50;;;1.10;1.00;;;;;;5138033;27;20304;-67
2021/11/10 00:25:04;;;;;;;58.47;2.97;;;1.10;1.00;;;;;;5137170;27;20237;-67
2021/11/10 00:27:31;;;;;;;58.60;3.20;;;1.10;1.00;;;;;;5137706;27;20294;-67
2021/11/10 00:29:58;;;;;;;58.50;3.30;;;1.00;1.00;;;;;;5137388;27;20301;-68
2021/11/10 00:32:25;;;;;;;59.90;5.28;;;1.00;1.00;;;;;;5137199;27;20262;-68
2021/11/10 00:34:52;;;;;;;58.60;3.00;;;1.00;1.00;;;;;;5137037;27;20302;-68
2021/11/10 00:37:20;;;;;;;58.78;3.20;;;1.00;1.00;;;;;;5136588;27;20237;-68
2021/11/10 00:39:47;;;;;;;58.50;2.90;;;0.90;1.00;;;;;;5135323;27;20205;-68
2021/11/10 00:42:14;;;;;;;58.47;3.17;;;0.90;1.00;;;;;;5137076;27;20262;-68
2021/11/10 00:44:41;;;;;;;58.60;3.00;;;0.90;1.00;;;;;;5137283;27;20232;-68
2021/11/10 00:47:08;;;;;;;58.88;4.20;;;0.90;1.00;;;;;;5136519;27;20207;-68
2021/11/10 00:49:34;;;;;;;58.58;3.10;;;0.90;1.00;;;;;;5136686;27;20241;-68
2021/11/10 00:52:01;;;;;;;58.45;3.13;;;0.90;1.00;;;;;;5137310;27;20314;-68
2021/11/10 00:54:30;;;;;;;58.78;3.00;;;0.90;1.00;;;;;;5136868;27;20790;-69
2021/11/10 00:56:57;;;;;;;58.55;3.17;;;0.90;1.00;;;;;;5136457;27;20198;-68
2021/11/10 00:59:24;;;;;;;58.47;3.10;;;0.90;1.00;;;;;;5136582;27;20222;-67
2021/11/10 01:01:51;;;;;;;58.58;3.00;;;0.80;1.00;;;;;;5136524;27;20230;-68
2021/11/10 01:04:18;;;;;;;58.58;3.20;;;0.80;1.00;;;;;;5136368;27;20211;-68
2021/11/10 01:06:45;;;;;;;58.55;2.95;;;0.70;1.00;;;;;;5136399;27;20238;-68
2021/11/10 01:09:16;;;;;;;58.95;3.42;;;0.70;1.00;;;;;;5136968;27;20630;-68
2021/11/10 01:11:46;;;;;;;59.10;3.50;;;0.70;1.00;;;;;;5134697;27;20218;-67
2021/11/10 01:14:14;;;;;;;58.75;2.95;;;0.60;1.00;;;;;;5137730;27;20210;-68
2021/11/10 01:16:41;;;;;;;59.20;4.13;;;0.60;1.00;;;;;;5136335;27;20234;-68
2021/11/10 01:19:08;;;;;;;58.28;3.17;;;0.50;1.00;;;;;;5137385;27;20234;-68
2021/11/10 01:21:36;;;;;;;58.88;3.60;;;0.50;1.00;;;;;;5136891;27;20657;-68
2021/11/10 01:24:03;;;;;;;58.88;3.45;;;0.50;1.00;;;;;;5136865;27;20275;-68
2021/11/10 01:26:30;;;;;;;58.78;3.60;;;0.60;1.00;;;;;;5136670;27;20298;-68
2021/11/10 01:28:58;;;;;;;58.70;3.45;;;0.60;1.00;;;;;;5136101;27;20294;-68
2021/11/10 01:31:25;;;;;;;58.60;3.40;;;0.60;1.00;;;;;;5136435;27;20294;-68
2021/11/10 01:33:52;;;;;;;58.13;3.10;;;0.70;1.00;;;;;;5136815;27;20230;-68
2021/11/10 01:36:19;;;;;;;58.72;3.58;;;0.70;1.00;;;;;;5135973;27;20207;-68
2021/11/10 01:38:46;;;;;;;58.58;3.13;;;0.60;1.00;;;;;;5135833;27;20557;-68
2021/11/10 01:41:13;;;;;;;58.65;3.08;;;0.60;1.00;;;;;;5135745;27;20305;-68
2021/11/10 01:43:40;;;;;;;58.72;3.40;;;0.60;1.00;;;;;;5125183;27;20207;-68
2021/11/10 01:46:09;;;;;;;58.83;3.10;;;0.60;1.00;;;;;;5115432;28;20235;-68
2021/11/10 01:48:36;;;;;;;58.80;3.30;;;0.50;1.00;;;;;;5114907;28;20235;-68
2021/11/10 01:51:03;;;;;;;58.67;3.20;;;0.50;1.00;;;;;;5115270;28;20286;-68
2021/11/10 01:53:30;;;;;;;59.78;3.85;;;0.50;1.00;;;;;;5114752;28;20270;-68
2021/11/10 01:55:58;;;;;;;58.58;3.20;;;0.50;1.00;;;;;;5115006;28;20668;-68
2021/11/10 01:58:25;;;;;;;58.03;3.58;;;0.50;1.00;;;;;;5114587;28;20207;-68
2021/11/10 02:00:52;;;;;;;59.08;3.67;;;0.40;1.00;;;;;;5114651;28;20227;-68
2021/11/10 02:03:21;;;;;;;58.58;3.30;;;0.40;1.00;;;;;;5114254;28;20303;-68
2021/11/10 02:05:49;;;;;;;58.22;3.53;;;0.50;1.00;;;;;;5114458;28;20625;-68
2021/11/10 02:08:16;;;;;;;58.78;3.20;;;0.50;1.00;;;;;;5113156;28;20275;-68
2021/11/10 02:10:43;;;;;;;59.00;3.35;;;0.50;1.00;;;;;;5114585;28;20324;-68
2021/11/10 02:13:10;;;;;;;58.97;3.20;;;0.50;1.00;;;;;;5114600;28;20253;-68
2021/11/10 02:15:37;;;;;;;58.58;3.10;;;0.40;1.00;;;;;;5127549;27;20213;-68
2021/11/10 02:18:04;;;;;;;58.35;3.30;;;0.40;1.00;;;;;;5139819;27;20688;-68
2021/11/10 02:20:36;;;;;;;58.47;3.50;;;0.40;1.00;;;;;;5138711;27;20223;-68
2021/11/10 02:23:05;;;;;;;58.58;3.15;;;0.40;1.00;;;;;;5139157;27;20293;-68
2021/11/10 02:25:33;;;;;;;58.65;3.10;;;0.40;1.00;;;;;;5139179;27;20687;-67
2021/11/10 02:28:00;;;;;;;58.70;3.10;;;0.40;1.00;;;;;;5139234;27;20246;-68
2021/11/10 02:30:28;;;;;;;58.60;3.00;;;0.40;1.00;;;;;;5139496;27;20254;-67
2021/11/10 02:32:58;;;;;;;58.40;3.15;;;0.30;1.00;;;;;;5138515;27;20770;-68
2021/11/10 02:35:27;;;;;;;59.85;4.22;;;0.30;1.00;;;;;;5138279;27;20708;-68
2021/11/10 02:37:58;;;;;;;59.30;4.57;;;0.30;1.00;;;;;;5138228;27;20289;-68
2021/11/10 02:40:27;;;;;;;58.35;3.40;;;0.30;1.00;;;;;;5138002;27;20805;-68
2021/11/10 02:42:55;;;;;;;58.25;3.70;;;0.20;1.00;;;;;;5138689;27;20289;-68
2021/11/10 02:45:23;;;;;;;58.97;3.88;;;0.20;1.00;;;;;;5137778;27;20306;-67
2021/11/10 02:47:50;;;;;;;58.47;3.10;;;0.20;1.00;;;;;;5137227;27;20228;-67
2021/11/10 02:50:17;;;;;;;60.22;4.50;;;0.20;1.00;;;;;;5139531;27;20310;-68
2021/11/10 02:52:44;;;;;;;58.67;3.20;;;0.30;1.00;;;;;;5139480;27;20703;-68
2021/11/10 02:55:11;;;;;;;58.90;3.25;;;0.30;1.00;;;;;;5139287;27;20737;-68
2021/11/10 02:57:39;;;;;;;58.58;3.40;;;0.30;1.00;;;;;;5138761;27;20231;-68
2021/11/10 03:00:09;;;;;;;58.75;3.30;;;0.30;1.00;;;;;;5138083;27;20245;-67
2021/11/10 03:02:36;;;;;;;58.75;3.20;;;0.20;1.00;;;;;;5138968;27;20199;-68
2021/11/10 03:05:05;;;;;;;58.45;3.30;;;0.30;1.00;;;;;;5138534;27;20206;-68
2021/11/10 03:07:33;;;;;;;58.67;3.40;;;0.30;1.00;;;;;;5138956;27;20294;-68
2021/11/10 03:10:00;;;;;;;58.55;3.30;;;0.30;1.00;;;;;;5138804;27;20584;-68
2021/11/10 03:12:27;;;;;;;58.80;3.20;;;0.30;1.00;;;;;;5138037;27;20218;-68
2021/11/10 03:14:55;;;;;;;58.60;3.88;;;0.20;1.00;;;;;;5138203;27;20553;-68
2021/11/10 03:17:22;;;;;;;59.10;3.60;;;0.30;1.00;;;;;;5137770;27;20641;-68
2021/11/10 03:19:49;;;;;;;59.05;3.40;;;0.30;1.00;;;;;;5136503;27;20287;-68
2021/11/10 03:22:17;;;;;;;58.78;3.30;;;0.20;1.00;;;;;;5138603;27;20230;-68
2021/11/10 03:24:44;;;;;;;58.95;3.65;;;0.20;1.00;;;;;;5138155;27;20242;-67
2021/11/10 03:27:12;;;;;;;58.58;3.13;;;0.20;1.00;;;;;;5136976;27;20290;-68
2021/11/10 03:29:39;;;;;;;58.47;3.10;;;0.20;1.00;;;;;;5138596;27;20266;-68
2021/11/10 03:32:10;;;;;;;58.67;3.10;;;0.30;1.00;;;;;;5137783;27;20227;-68
2021/11/10 03:34:37;;;;;;;58.35;3.20;;;0.30;1.00;;;;;;5137614;27;20217;-68
2021/11/10 03:37:04;;;;;;;58.55;3.10;;;0.20;1.00;;;;;;5137632;27;20294;-68
2021/11/10 03:39:31;;;;;;;58.60;3.75;;;0.20;1.00;;;;;;5137601;27;20209;-68
2021/11/10 03:41:58;;;;;;;58.72;3.40;;;0.10;1.00;;;;;;5136878;27;20662;-68
2021/11/10 03:44:25;;;;;;;58.55;3.28;;;0.10;1.00;;;;;;5137596;27;20714;-68
2021/11/10 03:46:52;;;;;;;58.88;3.85;;;0.10;1.00;;;;;;5136977;27;20295;-68
2021/11/10 03:49:21;;;;;;;58.65;3.40;;;0.20;1.00;;;;;;5137501;27;20384;-68
2021/11/10 03:51:49;;;;;;;58.65;3.25;;;0.20;1.00;;;;;;5136405;27;20250;-68
2021/11/10 03:54:16;;;;;;;58.55;3.40;;;0.30;1.00;;;;;;5137437;27;20217;-68
2021/11/10 03:56:44;;;;;;;59.10;3.90;;;0.30;1.00;;;;;;5137402;27;20565;-67
2021/11/10 03:59:11;;;;;;;58.47;3.08;;;0.30;1.00;;;;;;5137954;27;20207;-68
2021/11/10 04:01:38;;;;;;;57.83;3.30;;;0.30;1.00;;;;;;5137018;27;20687;-68
2021/11/10 04:04:05;;;;;;;57.83;3.20;;;0.30;1.00;;;;;;5137295;27;20217;-68
2021/11/10 04:06:33;;;;;;;58.67;3.25;;;0.30;1.00;;;;;;5137337;27;20230;-68
2021/11/10 04:09:00;;;;;;;58.90;3.22;;;0.30;1.00;;;;;;5137325;27;20709;-68
2021/11/10 04:11:27;;;;;;;58.67;3.30;;;0.30;1.00;;;;;;5136900;27;20227;-68
2021/11/10 04:13:54;;;;;;;58.60;3.60;;;0.20;1.00;;;;;;5136965;27;20276;-68
2021/11/10 04:16:22;;;;;;;58.38;3.10;;;0.20;1.00;;;;;;5137033;27;20203;-68
2021/11/10 04:18:51;;;;;;;58.35;3.25;;;0.20;1.00;;;;;;5136986;27;20203;-68
2021/11/10 04:21:18;;;;;;;58.60;3.42;;;0.20;1.00;;;;;;5136476;27;20277;-68
2021/11/10 04:23:48;;;;;;;58.28;3.30;;;0.20;1.00;;;;;;5134842;27;20681;-68
2021/11/10 04:26:15;;;;;;;58.35;3.30;;;0.20;1.00;;;;;;5136013;27;20268;-68
2021/11/10 04:28:43;;;;;;;58.78;3.30;;;0.20;1.00;;;;;;5137075;27;20766;-68
2021/11/10 04:31:10;;;;;;;58.60;3.00;;;0.20;1.00;;;;;;5136907;27;20692;-67
2021/11/10 04:33:37;;;;;;;58.35;3.30;;;0.20;1.00;;;;;;5136105;27;20310;-68
2021/11/10 04:36:05;;;;;;;58.17;3.10;;;0.20;1.00;;;;;;5136230;27;20290;-68
2021/11/10 04:38:33;;;;;;;58.95;3.70;;;0.20;1.00;;;;;;5136648;27;20214;-68
2021/11/10 04:41:01;;;;;;;58.50;3.10;;;0.20;1.00;;;;;;5136332;27;20329;-68
2021/11/10 04:43:28;;;;;;;58.45;3.30;;;0.20;1.00;;;;;;5136437;27;20210;-68
2021/11/10 04:46:02;;;;;;;58.42;3.45;;;0.20;1.00;;;;;;5135868;27;20230;-69
2021/11/10 04:48:30;;;;;;;58.30;3.10;;;0.20;1.00;;;;;;5136761;27;20206;-68
2021/11/10 04:50:58;;;;;;;58.00;2.97;;;0.20;1.00;;;;;;5136435;27;20317;-68
2021/11/10 04:53:25;;;;;;;58.47;3.40;;;0.20;1.00;;;;;;5136657;27;20254;-68
2021/11/10 04:55:51;;;;;;;58.60;3.40;;;0.20;1.00;;;;;;5134510;27;20238;-68
2021/11/10 04:58:20;;;;;;;58.88;5.07;;;0.20;1.00;;;;;;5136755;27;20295;-68
2021/11/10 05:00:47;;;;;;;58.70;3.33;;;0.20;1.00;;;;;;5136321;27;20635;-68
2021/11/10 05:03:14;;;;;;;58.60;3.10;;;0.10;1.00;;;;;;5135768;27;20199;-68
2021/11/10 05:05:41;;;;;;;58.80;2.90;;;0.10;1.00;;;;;;5136008;27;20232;-68
2021/11/10 05:08:08;;;;;;;58.28;3.20;;;0.10;1.00;;;;;;5136378;27;20203;-68
2021/11/10 05:10:35;;;;;;;58.67;3.20;;;0.10;1.00;;;;;;5136075;27;20262;-68
2021/11/10 05:13:01;;;;;;;58.38;3.10;;;0.10;1.00;;;;;;5136225;27;20310;-68
2021/11/10 05:15:30;;;;;;;58.10;3.33;;;0.00;1.00;;;;;;5135465;27;20238;-67
2021/11/10 05:17:56;;;;;;;58.50;3.35;;;0.00;1.00;;;;;;5136694;27;20217;-68
2021/11/10 05:20:24;;;;;;;58.67;3.10;;;0.00;1.00;;;;;;5135788;27;20313;-68
2021/11/10 05:22:50;;;;;;;58.33;3.55;;;0.00;1.00;;;;;;5136321;27;20285;-68
2021/11/10 05:25:18;;;;;;;58.38;3.20;;;-0.10;1.00;;;;;;5133735;27;20213;-68
2021/11/10 05:27:45;;;;;;;58.50;3.22;;;-0.10;1.00;;;;;;5136190;27;20289;-68
2021/11/10 05:30:13;;;;;;;58.80;3.00;;;-0.10;1.00;;;;;;5135925;27;20253;-68
2021/11/10 05:32:43;;;;;;;58.28;2.90;;;-0.10;1.00;;;;;;5135599;27;20222;-68
2021/11/10 05:35:11;;;;;;;58.55;3.20;;;-0.20;1.00;;;;;;5135472;27;20219;-68
2021/11/10 05:37:38;;;;;;;58.47;3.00;;;-0.20;1.00;;;;;;5135270;27;20234;-68
2021/11/10 05:40:07;;;;;;;58.67;3.00;;;-0.20;1.00;;;;;;5135129;27;20290;-68
2021/11/10 05:42:34;;;;;;;58.55;3.10;;;-0.20;1.00;;;;;;5134876;27;20195;-68
2021/11/10 05:45:02;;;;;;;58.58;3.30;;;-0.20;1.00;;;;;;5135318;27;20244;-67
2021/11/10 05:47:29;;;;;;;58.72;4.07;;;-0.20;1.00;;;;;;5135136;27;20238;-67
2021/11/10 05:49:57;;;;;;;58.90;3.30;;;-0.30;1.00;;;;;;5134580;27;20242;-67
2021/11/10 05:52:24;;;;;;;58.45;2.85;;;-0.20;1.00;;;;;;5135591;27;20662;-67
2021/11/10 05:54:52;;;;;;;59.00;3.50;;;-0.20;1.00;;;;;;5135098;27;20289;-67
2021/11/10 05:57:19;;;;;;;58.63;3.15;;;-0.20;1.00;;;;;;5132910;27;20293;-68
2021/11/10 05:59:46;;;;;;;58.50;3.45;;;-0.20;1.00;;;;;;5135303;27;20203;-68
2021/11/10 06:02:13;;;;;;;58.25;3.50;;;-0.20;1.00;;;;;;5135296;27;20639;-68
2021/11/10 06:04:40;;;;;;;58.58;3.10;;;-0.20;1.00;;;;;;5135295;27;20577;-68
2021/11/10 06:07:09;;;;;;;58.88;3.42;;;-0.20;1.00;;;;;;5135176;27;20731;-68
2021/11/10 06:09:36;;;;;;;58.67;3.28;;;-0.20;1.00;;;;;;5134964;27;20213;-68
2021/11/10 06:12:04;;;;;;;58.45;3.20;;;-0.20;1.00;;;;;;5135245;27;20317;-68
2021/11/10 06:14:30;;;;;;;58.33;3.60;;;-0.10;1.00;;;;;;5135029;27;20219;-68
2021/11/10 06:16:57;;;;;;;58.63;3.35;;;-0.10;1.00;;;;;;5134801;27;20210;-68
2021/11/10 06:19:26;;;;;;;58.67;3.50;;;-0.10;1.00;;;;;;5134618;27;20664;-68
2021/11/10 06:21:52;;;;;;;59.05;4.90;;;-0.10;1.00;;;;;;5134763;27;20227;-68
2021/11/10 06:24:21;;;;;;;58.47;3.30;;;-0.10;1.00;;;;;;5134356;27;20205;-68
2021/11/10 06:26:48;;;;;;;58.70;3.65;;;-0.10;1.00;;;;;;5134468;27;20210;-68
2021/11/10 06:29:15;;;;;;;58.90;3.38;;;0.00;1.00;;;;;;5133567;27;20206;-68
2021/11/10 06:31:42;;;;;;;58.15;3.40;;;0.00;1.00;;;;;;5135228;27;20233;-68
2021/11/10 06:34:09;;;;;;;58.10;3.50;;;0.00;1.00;;;;;;5134768;27;20233;-68
2021/11/10 06:36:36;;;;;;;58.22;3.65;;;0.00;1.00;;;;;;5134059;27;20297;-67
2021/11/10 06:39:04;;;;;;;58.55;3.13;;;0.00;1.00;;;;;;5133613;27;20313;-67
2021/11/10 06:41:32;;;;;;;57.88;3.40;;;0.10;1.00;;;;;;5134302;27;20770;-68
2021/11/10 06:43:59;;;;;;;58.47;3.30;;;0.10;1.00;;;;;;5134371;27;20227;-68
2021/11/10 06:46:26;;;;;;;59.38;4.30;;;0.10;1.00;;;;;;5133347;27;20290;-68
2021/11/10 06:48:53;;;;;;;58.70;3.50;;;0.10;1.00;;;;;;5133773;27;20238;-68
2021/11/10 06:51:19;;;;;;;58.50;3.05;;;0.20;1.00;;;;;;5133381;27;20218;-68
2021/11/10 06:53:47;;;;;;;58.00;3.30;;;0.20;1.00;;;;;;5133718;27;20579;-68
2021/11/10 06:56:14;;;;;;;58.35;3.40;;;0.30;1.00;;;;;;5133192;27;20203;-68
2021/11/10 06:58:42;;;;;;;58.25;3.20;;;0.30;1.00;;;;;;5133364;27;20203;-68
2021/11/10 07:01:09;;;;;;;58.35;3.30;;;0.40;1.00;;;;;;5131710;27;20310;-68
2021/11/10 07:03:36;;;;;;;58.15;3.10;;;0.50;1.00;;;;;;5137176;27;20206;-68
2021/11/10 07:06:03;;;;;;;58.35;3.40;;;0.50;1.00;;;;;;5136277;27;20238;-67
2021/11/10 07:08:30;;;;;;;58.78;3.00;;;0.60;1.00;;;;;;5136445;27;20207;-67
2021/11/10 07:10:57;;;;;;;58.50;3.20;;;0.70;1.00;;;;;;5136113;27;20831;-67
2021/11/10 07:13:23;;;;;;;61.90;4.32;;;0.80;1.00;;;;;;5136152;27;20253;-67
2021/11/10 07:15:52;;;;;;;59.28;4.13;;;0.80;1.00;;;;;;5135657;27;20306;-67
2021/11/10 07:18:19;;;;;;;58.17;3.10;;;0.90;1.00;;;;;;5135938;27;20667;-67
2021/11/10 07:20:46;;;;;;;58.45;3.10;;;1.00;1.00;;;;;;5135762;27;20317;-67
2021/11/10 07:23:13;;;;;;;58.35;3.50;;;1.10;1.00;;;;;;5136239;27;20206;-67
2021/11/10 07:25:40;;;;;;;58.58;2.95;;;1.20;1.00;;;;;;5136135;27;20223;-68
2021/11/10 07:28:07;;;;;;;58.70;3.78;;;1.30;1.00;;;;;;5135478;27;20339;-68
2021/11/10 07:30:34;;;;;;;58.38;3.30;;;1.30;1.00;;;;;;5135193;27;20219;-67
2021/11/10 07:33:02;;;;;;;58.45;2.90;;;1.40;1.00;;;;;;5134087;27;20589;-68
2021/11/10 07:35:29;;;;;;;58.47;3.58;;;1.40;1.00;;;;;;5136448;27;20205;-68
2021/11/10 07:37:56;;;;;;;58.30;3.10;;;1.50;1.00;;;;;;5137976;27;20207;-67
2021/11/10 07:40:25;;;;;;;58.42;3.33;;;1.60;1.00;;;;;;5137124;27;20672;-68
2021/11/10 07:42:51;;;;;;;58.38;2.97;;;1.70;1.00;;;;;;5136805;27;20207;-67
2021/11/10 07:45:20;;;;;;;58.60;3.63;;;1.80;1.00;;;;;;5135779;27;20213;-67
2021/11/10 07:47:48;;;;;;;58.40;2.97;;;1.90;1.00;;;;;;5135247;27;20717;-67
2021/11/10 07:50:18;;;;;;;58.17;3.10;;;1.90;1.00;;;;;;5135555;27;20283;-68
2021/11/10 07:52:46;;;;;;;58.50;3.35;;;2.00;1.00;;;;;;5135802;27;20246;-67
2021/11/10 07:55:13;;;;;;;61.42;3.83;;;2.10;1.00;;;;;;5135943;27;20207;-67
2021/11/10 07:57:40;;;;;;;58.38;3.10;;;2.20;1.00;;;;;;5136470;27;20299;-68
2021/11/10 08:00:10;;;;;;;60.55;4.45;;;2.20;1.00;;;;;;5136083;27;20293;-68
2021/11/10 08:02:37;;;;;;;58.25;3.00;;;2.30;1.00;;;;;;5135400;27;20203;-68
2021/11/10 08:05:04;;;;;;;58.33;3.13;;;2.40;1.00;;;;;;5133987;27;20286;-67
2021/11/10 08:07:33;;;;;;;58.40;3.00;;;2.60;1.00;;;;;;5135286;27;20290;-67
2021/11/10 08:10:00;;;;;;;58.40;3.10;;;2.80;1.00;;;;;;5135434;27;20235;-68
2021/11/10 08:12:27;;;;;;;58.38;2.88;;;3.00;1.00;;;;;;5136079;27;20241;-68
2021/11/10 08:14:54;;;;;;;58.38;3.00;;;3.10;1.00;;;;;;5134780;27;20273;-68
2021/11/10 08:17:21;;;;;;;58.28;3.00;;;3.30;1.00;;;;;;5134936;27;20289;-67
2021/11/10 08:19:48;;;;;;;58.70;3.33;;;3.40;1.00;;;;;;5136081;27;20230;-68
2021/11/10 08:22:15;;;;;;;58.40;3.03;;;3.50;1.00;;;;;;5135361;27;20217;-68
2021/11/10 08:24:45;;;;;;;58.53;3.33;;;3.50;1.00;;;;;;5134932;27;20290;-67
2021/11/10 08:27:12;;;;;;;58.40;3.95;;;3.60;1.00;;;;;;5134602;27;20255;-67
2021/11/10 08:29:39;;;;;;;58.38;3.40;;;3.70;1.00;;;;;;5134942;27;20249;-67
2021/11/10 08:32:07;;;;;;;61.00;3.95;;;3.80;1.00;;;;;;5134123;27;20219;-67
2021/11/10 08:34:34;;;;;;;58.40;2.90;;;3.80;1.00;;;;;;5133595;27;20312;-67
2021/11/10 08:37:01;;;;;;;58.30;2.70;;;3.90;1.00;;;;;;5131526;27;20299;-67
2021/11/10 08:39:28;;;;;;;58.35;3.00;;;4.00;1.00;;;;;;5133779;27;20302;-67
2021/11/10 08:41:57;;;;;;;58.25;2.75;;;4.10;1.00;;;;;;5133608;27;20314;-67
2021/11/10 08:44:24;;;;;;;58.25;2.65;;;4.30;1.00;;;;;;5133185;27;20272;-67
2021/11/10 08:46:51;;;;;;;58.58;3.00;;;4.40;1.00;;;;;;5132970;27;20198;-67
2021/11/10 08:49:18;;;;;;;58.45;3.10;;;4.50;1.00;;;;;;5133744;27;20240;-68
2021/11/10 08:51:45;;;;;;;58.30;3.00;;;4.70;1.00;;;;;;5133956;27;20310;-67
2021/11/10 08:54:12;;;;;;;58.28;3.10;;;4.80;1.00;;;;;;5133482;27;20742;-67
2021/11/10 08:56:39;;;;;;;58.38;3.10;;;4.90;1.00;;;;;;5133171;27;20206;-68
2021/11/10 08:59:07;;;;;;;58.20;3.10;;;4.90;1.00;;;;;;5133350;27;20294;-68
2021/11/10 09:01:37;;;;;;;58.25;2.80;;;5.00;1.00;;;;;;5133444;27;20233;-68
2021/11/10 09:04:04;;;;;;;58.17;2.80;;;5.10;1.00;;;;;;5133395;27;20693;-68
2021/11/10 09:06:31;;;;;;;58.17;2.97;;;5.20;1.00;;;;;;5132352;27;20202;-68
2021/11/10 09:08:58;;;;;;;58.20;2.80;;;5.20;1.00;;;;;;5134126;27;20203;-68
2021/11/10 09:11:25;;;;;;;58.17;3.20;;;5.20;1.00;;;;;;5138407;27;20313;-68
2021/11/10 09:13:52;;;;;;;58.30;3.03;;;5.30;1.00;;;;;;5137802;27;20254;-68
2021/11/10 09:16:20;;;;;;;59.10;3.20;;;5.30;1.00;;;;;;5134860;27;20245;-68
2021/11/10 09:18:47;;;;;;;58.65;3.00;;;5.30;1.00;;;;;;5135540;27;20202;-68
2021/11/10 09:21:14;;;;;;;58.47;3.30;;;5.30;1.00;;;;;;5136413;27;20700;-68
2021/11/10 09:23:41;;;;;;;58.25;2.85;;;5.40;1.00;;;;;;5135793;27;20788;-68
2021/11/10 09:26:08;;;;;;;58.40;3.00;;;5.50;1.00;;;;;;5141257;27;20229;-69
2021/11/10 09:28:36;;;;;;;58.17;2.85;;;5.60;1.00;;;;;;5142189;27;20230;-68
2021/11/10 09:31:04;;;;;;;59.35;3.20;;;5.70;1.00;;;;;;5142499;27;20223;-68
2021/11/10 09:33:35;;;;;;;58.80;3.60;;;5.90;1.00;;;;;;5142532;27;20675;-68
2021/11/10 09:36:03;;;;;;;58.38;2.88;;;6.10;1.00;;;;;;5138229;27;20294;-68
2021/11/10 09:38:30;;;;;;;58.58;3.50;;;6.20;1.00;;;;;;5138638;27;20636;-68
2021/11/10 09:41:00;;;;;;;58.28;3.40;;;6.30;1.00;;;;;;5138254;27;20246;-68
2021/11/10 09:43:31;;;;;;;58.25;3.00;;;6.40;1.00;;;;;;5139973;27;20208;-68
2021/11/10 09:45:58;;;;;;;58.88;3.75;;;6.50;1.00;;;;;;5139193;27;20205;-68
2021/11/10 09:48:27;;;;;;;58.28;3.10;;;6.60;1.00;;;;;;5138433;27;20218;-68
2021/11/10 09:50:56;;;;;;;58.47;3.10;;;6.60;1.00;;;;;;5137736;27;20317;-68
2021/11/10 09:53:24;;;;;;;58.08;2.75;;;6.50;1.00;;;;;;5137211;27;20681;-68
2021/11/10 09:55:51;;;;;;;58.35;2.70;;;6.40;1.00;;;;;;5137203;27;20234;-68
2021/11/10 09:58:18;;;;;;;58.08;2.80;;;6.50;1.00;;;;;;5137072;27;20259;-68
2021/11/10 10:00:48;;;;;;;58.15;2.70;;;6.60;1.00;;;;;;5136615;27;20223;-68
2021/11/10 10:03:15;;;;;;;58.53;3.15;;;6.40;1.00;;;;;;5137948;27;20697;-68
2021/11/10 10:05:44;;;;;;;58.05;2.60;;;6.40;1.00;;;;;;5138337;27;20632;-68
2021/11/10 10:08:13;;;;;;;58.25;2.88;;;6.30;1.00;;;;;;5139294;27;20206;-68
2021/11/10 10:10:40;;;;;;;57.83;2.72;;;6.30;1.00;;;;;;5137708;27;20223;-68
2021/11/10 10:13:08;;;;;;;58.28;2.75;;;6.50;1.00;;;;;;5136604;27;20207;-68
2021/11/10 10:15:36;;;;;;;58.30;2.65;;;6.60;1.00;;;;;;5135994;27;20219;-68
2021/11/10 10:18:12;;;;;;;58.80;3.30;;;6.80;1.00;;;;;;5136832;27;20309;-68
2021/11/10 10:20:40;;;;;;;58.28;2.70;;;6.90;1.00;;;;;;5140003;27;20293;-68
2021/11/10 10:23:11;;;;;;;58.72;3.42;;;6.90;1.00;;;;;;5139913;27;20294;-68
2021/11/10 10:25:43;;;;;;;58.22;3.13;;;7.00;1.00;;;;;;5138470;27;20199;-68
2021/11/10 10:28:11;;;;;;;57.88;2.65;;;6.90;1.00;;;;;;5137853;27;20238;-68
2021/11/10 10:30:42;;;;;;;59.25;4.40;;;7.00;1.00;;;;;;5136501;27;20723;-68
2021/11/10 10:33:11;;;;;;;58.20;2.72;;;7.00;1.00;;;;;;5140081;27;20242;-68
2021/11/10 10:35:42;;;;;;;58.15;2.75;;;7.10;1.00;;;;;;5141389;27;20309;-69
2021/11/10 10:38:11;;;;;;;58.60;3.42;;;7.30;1.00;;;;;;5144261;27;20702;-68
2021/11/10 10:40:42;;;;;;;58.28;3.00;;;7.40;1.00;;;;;;5146186;27;20258;-68
2021/11/10 10:43:09;;;;;;;58.08;3.15;;;7.60;1.00;;;;;;5145431;27;20598;-68
2021/11/10 10:45:39;;;;;;;58.17;2.90;;;7.70;1.00;;;;;;5144324;27;20205;-68
2021/11/10 10:48:09;;;;;;;58.15;3.00;;;7.90;1.00;;;;;;5144544;27;20286;-68
2021/11/10 10:50:41;;;;;;;58.08;2.70;;;8.10;1.00;;;;;;5144327;27;20263;-69
2021/11/10 10:53:09;;;;;;;59.45;3.80;;;8.20;1.00;;;;;;5144130;27;20202;-68
2021/11/10 10:55:39;;;;;;;58.30;3.42;;;8.30;1.00;;;;;;5144542;27;20247;-68
2021/11/10 10:58:13;;;;;;;58.40;3.20;;;8.50;1.00;;;;;;5145645;27;20625;-68
2021/11/10 11:00:42;;;;;;;58.97;3.58;;;8.80;1.00;;;;;;5144487;27;20258;-69
2021/11/10 11:03:26;;;;;;;59.43;3.90;;;9.00;1.00;;;;;;5145304;27;20213;-69
2021/11/10 11:05:53;;;;;;;58.50;3.10;;;9.10;1.00;;;;;;5137237;27;20440;-68
2021/11/10 11:08:41;;;;;;;59.27;3.10;;;9.20;1.00;;;;;;5139382;27;20445;-69
2021/11/10 11:11:40;;;;;;;58.87;3.30;;;9.40;1.00;;;;;;5133261;27;20505;-68
2021/11/10 11:14:25;;;;;;;58.27;3.17;;;9.70;1.00;;;;;;5118634;28;20621;-70
2021/11/10 11:17:04;;;;;;;58.50;3.20;;;10.10;1.00;;;;;;5116737;28;20453;-69
2021/11/10 11:19:33;;;;;;;58.40;2.90;;;10.70;1.00;;;;;;5120558;28;20442;-69
2021/11/10 11:22:01;;;;;;;58.57;3.10;;;11.40;1.00;;;;;;5117272;27;20474;-68
2021/11/10 11:24:42;;;;;;;57.87;3.30;;;12.00;1.00;;;;;;5118808;28;20488;-69
2021/11/10 11:27:15;;;;;;;58.33;3.63;;;12.30;1.00;;;;;;5116878;28;20476;-69
2021/11/10 11:29:44;;;;;;;58.13;2.80;;;12.30;1.00;;;;;;5116558;28;20537;-69
2021/11/10 11:32:26;;;;;;;59.57;3.40;;;12.10;1.00;;;;;;5115367;28;20474;-69
2021/11/10 11:34:56;;;;;;;58.27;2.80;;;11.90;1.00;;;;;;5115856;28;20485;-68
2021/11/10 11:37:24;;;;;;;58.20;2.70;;;11.70;1.00;;;;;;5115820;28;20448;-69
2021/11/10 11:39:53;;;;;;;58.07;2.80;;;11.70;1.00;;;;;;5116104;28;20449;-69
2021/11/10 11:42:22;;;;;;;58.33;2.70;;;12.00;1.00;;;;;;5116409;28;20532;-69
2021/11/10 11:44:50;;;;;;;57.97;3.00;;;12.60;1.00;;;;;;5115412;28;20937;-69
2021/11/10 11:47:19;;;;;;;58.70;3.03;;;12.90;1.00;;;;;;5114500;28;20915;-69
2021/11/10 11:49:47;;;;;;;58.27;2.67;;;13.00;1.00;;;;;;5114091;28;20449;-68
2021/11/10 11:52:16;;;;;;;58.30;2.80;;;13.00;1.00;;;;;;5115023;28;20469;-67
2021/11/10 11:54:46;;;;;;;58.27;3.00;;;12.90;1.00;;;;;;5116108;28;20584;-67
2021/11/10 11:57:19;;;;;;;58.10;3.00;;;13.00;1.00;;;;;;5118766;27;20452;-69
2021/11/10 11:59:52;;;;;;;60.40;3.63;;;13.40;1.00;;;;;;5137814;27;20448;-68
2021/11/10 12:02:26;;;;;;;59.80;3.50;;;14.40;1.00;;;;;;5134619;27;20958;-68
2021/11/10 12:04:53;;;;;;;58.47;3.47;;;15.20;1.00;;;;;;5134501;27;20448;-67
2021/11/10 12:07:50;;;;;;;59.00;4.07;;;15.30;1.00;;;;;;5134636;27;20451;-67
2021/11/10 12:10:35;;;;;;;59.07;4.20;;;14.90;1.00;;;;;;5099223;27;20476;-69
2021/11/10 12:13:07;;;;;;;58.40;2.80;;;14.60;1.00;;;;;;5136079;27;20991;-69
2021/11/10 12:16:05;;;;;;;57.83;2.80;;;14.50;1.00;;;;;;5138587;27;20580;-68
2021/11/10 12:18:45;;;;;;;58.27;3.17;;;14.60;1.00;;;;;;5138880;27;20523;-68
2021/11/10 12:21:13;;;;;;;57.83;2.60;;;15.20;1.00;;;;;;5136986;27;20456;-69
2021/11/10 12:24:15;;;;;;;58.70;3.30;;;15.50;1.00;;;;;;5134882;27;20520;-66
2021/11/10 12:27:08;;;;;;;59.50;3.60;;;16.00;1.00;;;;;;5133287;27;20807;-67
2021/11/10 12:30:15;;;;;;;59.00;2.90;;;16.60;1.00;;;;;;5135647;27;20472;-67
2021/11/10 12:32:57;;;;;;;58.43;3.10;;;17.30;1.00;;;;;;5071787;28;20917;-69
2021/11/10 12:35:34;;;;;;;58.80;3.73;;;;;;;;;;5071642;28;20523;-69
2021/11/10 12:38:03;;;;;;;58.50;3.47;;;20.60;1.00;;;;;;5073437;28;20889;-67
2021/11/10 12:40:32;;;;;;;58.30;3.00;;;22.50;1.00;;;;;;5073077;28;20554;-67
2021/11/10 12:43:13;;;;;;;58.77;3.20;;;24.00;1.00;;;;;;5073505;28;20514;-67
2021/11/10 12:45:42;;;;;;;59.93;5.43;;;25.90;1.00;;;;;;5072833;28;20435;-67
2021/11/10 12:48:11;;;;;;;59.77;3.87;;;26.90;1.00;;;;;;5073196;28;20478;-67
2021/11/10 12:50:43;;;;;;;59.67;3.80;;;27.30;99.90;;;;;;5073007;28;20543;-68
2021/11/10 12:53:11;;;;;;;59.43;2.60;;;27.90;99.90;;;;;;5073983;28;20479;-67
2021/11/10 12:55:50;;;;;;;59.57;3.07;;;28.10;99.90;;;;;;5073724;28;20491;-67
2021/11/10 12:58:21;;;;;;;58.97;2.97;;;28.60;99.90;;;;;;5073578;28;20534;-67
2021/11/10 13:00:50;;;;;;;58.77;2.70;;;29.50;99.90;;;;;;5073870;28;20838;-67
2021/11/10 13:03:28;;;;;;;58.77;3.20;;;30.10;99.90;;;;;;5096295;27;20528;-67